sensor_id;sensor_type;location;lat;lon;timestamp;P1;durP1;ratioP1;P2;durP2;ratioP2
60016;SDS011;45869;52.698;6.210;2023-09-18T00:02:28;18.52;;;15.65;;
60016;SDS011;45869;52.698;6.210;2023-09-18T00:04:56;19.35;;;16.52;;
60016;SDS011;45869;52.698;6.210;2023-09-18T00:07:22;19.73;;;16.70;;
60016;SDS011;45869;52.698;6.210;2023-09-18T00:09:48;20.48;;;17.52;;
60016;SDS011;45869;52.698;6.210;2023-09-18T00:12:16;18.55;;;15.15;;
60016;SDS011;45869;52.698;6.210;2023-09-18T00:14:42;20.30;;;17.30;;
60016;SDS011;45869;52.698;6.210;2023-09-18T00:17:08;18.80;;;16.60;;
60016;SDS011;45869;52.698;6.210;2023-09-18T00:19:34;18.45;;;15.80;;
60016;SDS011;45869;52.698;6.210;2023-09-18T00:22:00;19.58;;;16.38;;
60016;SDS011;45869;52.698;6.210;2023-09-18T00:24:27;20.50;;;16.98;;
60016;SDS011;45869;52.698;6.210;2023-09-18T00:26:53;20.05;;;16.00;;
60016;SDS011;45869;52.698;6.210;2023-09-18T00:29:19;18.30;;;16.33;;
60016;SDS011;45869;52.698;6.210;2023-09-18T00:31:48;17.50;;;15.68;;
60016;SDS011;45869;52.698;6.210;2023-09-18T00:34:17;19.70;;;15.27;;
60016;SDS011;45869;52.698;6.210;2023-09-18T00:36:43;18.98;;;15.68;;
60016;SDS011;45869;52.698;6.210;2023-09-18T00:39:09;19.00;;;16.92;;
60016;SDS011;45869;52.698;6.210;2023-09-18T00:41:39;17.75;;;15.75;;
60016;SDS011;45869;52.698;6.210;2023-09-18T00:44:06;16.85;;;15.05;;
60016;SDS011;45869;52.698;6.210;2023-09-18T00:46:32;18.80;;;15.52;;
60016;SDS011;45869;52.698;6.210;2023-09-18T00:48:58;17.55;;;15.05;;
60016;SDS011;45869;52.698;6.210;2023-09-18T00:51:24;16.75;;;14.95;;
60016;SDS011;45869;52.698;6.210;2023-09-18T00:53:50;16.83;;;15.02;;
60016;SDS011;45869;52.698;6.210;2023-09-18T00:56:16;20.33;;;16.13;;
60016;SDS011;45869;52.698;6.210;2023-09-18T00:58:45;20.00;;;15.55;;
60016;SDS011;45869;52.698;6.210;2023-09-18T01:01:15;16.60;;;14.73;;
60016;SDS011;45869;52.698;6.210;2023-09-18T01:03:41;18.13;;;15.27;;
60016;SDS011;45869;52.698;6.210;2023-09-18T01:06:07;15.88;;;13.57;;
60016;SDS011;45869;52.698;6.210;2023-09-18T01:08:33;17.10;;;15.30;;
60016;SDS011;45869;52.698;6.210;2023-09-18T01:11:02;19.60;;;15.32;;
60016;SDS011;45869;52.698;6.210;2023-09-18T01:13:35;16.73;;;14.25;;
60016;SDS011;45869;52.698;6.210;2023-09-18T01:16:10;17.25;;;15.35;;
60016;SDS011;45869;52.698;6.210;2023-09-18T01:18:47;17.75;;;14.88;;
60016;SDS011;45869;52.698;6.210;2023-09-18T01:21:14;18.38;;;16.33;;
60016;SDS011;45869;52.698;6.210;2023-09-18T01:23:40;16.98;;;15.18;;
60016;SDS011;45869;52.698;6.210;2023-09-18T01:26:06;18.48;;;15.70;;
60016;SDS011;45869;52.698;6.210;2023-09-18T01:28:33;18.73;;;16.25;;
60016;SDS011;45869;52.698;6.210;2023-09-18T01:30:59;19.30;;;16.80;;
60016;SDS011;45869;52.698;6.210;2023-09-18T01:33:25;19.85;;;17.33;;
60016;SDS011;45869;52.698;6.210;2023-09-18T01:35:52;19.55;;;15.98;;
60016;SDS011;45869;52.698;6.210;2023-09-18T01:38:20;21.25;;;16.52;;
60016;SDS011;45869;52.698;6.210;2023-09-18T01:40:47;18.27;;;16.35;;
60016;SDS011;45869;52.698;6.210;2023-09-18T01:43:14;20.23;;;16.92;;
60016;SDS011;45869;52.698;6.210;2023-09-18T01:45:40;18.65;;;16.75;;
60016;SDS011;45869;52.698;6.210;2023-09-18T01:48:07;18.85;;;16.08;;
60016;SDS011;45869;52.698;6.210;2023-09-18T01:50:33;21.27;;;17.90;;
60016;SDS011;45869;52.698;6.210;2023-09-18T01:52:59;19.65;;;17.55;;
60016;SDS011;45869;52.698;6.210;2023-09-18T01:55:25;18.58;;;16.60;;
60016;SDS011;45869;52.698;6.210;2023-09-18T01:57:53;17.60;;;15.77;;
60016;SDS011;45869;52.698;6.210;2023-09-18T02:00:19;18.80;;;16.80;;
60016;SDS011;45869;52.698;6.210;2023-09-18T02:02:46;19.83;;;17.63;;
60016;SDS011;45869;52.698;6.210;2023-09-18T02:05:12;20.42;;;17.17;;
60016;SDS011;45869;52.698;6.210;2023-09-18T02:07:38;18.10;;;16.17;;
60016;SDS011;45869;52.698;6.210;2023-09-18T02:10:04;21.10;;;17.17;;
60016;SDS011;45869;52.698;6.210;2023-09-18T02:12:30;21.35;;;18.17;;
60016;SDS011;45869;52.698;6.210;2023-09-18T02:14:56;19.88;;;17.73;;
60016;SDS011;45869;52.698;6.210;2023-09-18T02:17:26;23.08;;;17.95;;
60016;SDS011;45869;52.698;6.210;2023-09-18T02:19:52;20.08;;;16.95;;
60016;SDS011;45869;52.698;6.210;2023-09-18T02:22:18;19.35;;;17.17;;
60016;SDS011;45869;52.698;6.210;2023-09-18T02:24:44;20.15;;;17.77;;
60016;SDS011;45869;52.698;6.210;2023-09-18T02:27:10;19.55;;;17.17;;
60016;SDS011;45869;52.698;6.210;2023-09-18T02:29:37;19.08;;;16.52;;
60016;SDS011;45869;52.698;6.210;2023-09-18T02:32:03;19.02;;;17.05;;
60016;SDS011;45869;52.698;6.210;2023-09-18T02:34:29;20.90;;;17.17;;
60016;SDS011;45869;52.698;6.210;2023-09-18T02:36:55;21.10;;;16.98;;
60016;SDS011;45869;52.698;6.210;2023-09-18T02:39:21;18.30;;;16.27;;
60016;SDS011;45869;52.698;6.210;2023-09-18T02:41:47;21.42;;;18.67;;
60016;SDS011;45869;52.698;6.210;2023-09-18T02:44:14;20.55;;;18.10;;
60016;SDS011;45869;52.698;6.210;2023-09-18T02:46:41;19.38;;;17.27;;
60016;SDS011;45869;52.698;6.210;2023-09-18T02:49:08;21.05;;;17.80;;
60016;SDS011;45869;52.698;6.210;2023-09-18T02:51:34;21.85;;;17.23;;
60016;SDS011;45869;52.698;6.210;2023-09-18T02:54:00;20.73;;;17.45;;
60016;SDS011;45869;52.698;6.210;2023-09-18T02:56:27;20.27;;;17.35;;
60016;SDS011;45869;52.698;6.210;2023-09-18T02:58:53;20.20;;;17.45;;
60016;SDS011;45869;52.698;6.210;2023-09-18T03:01:19;18.80;;;16.55;;
60016;SDS011;45869;52.698;6.210;2023-09-18T03:03:45;22.10;;;18.50;;
60016;SDS011;45869;52.698;6.210;2023-09-18T03:06:11;18.25;;;16.35;;
60016;SDS011;45869;52.698;6.210;2023-09-18T03:08:38;18.88;;;16.85;;
60016;SDS011;45869;52.698;6.210;2023-09-18T03:11:10;19.35;;;17.25;;
60016;SDS011;45869;52.698;6.210;2023-09-18T03:13:37;21.08;;;18.02;;
60016;SDS011;45869;52.698;6.210;2023-09-18T03:16:03;19.70;;;17.55;;
60016;SDS011;45869;52.698;6.210;2023-09-18T03:18:29;20.13;;;17.88;;
60016;SDS011;45869;52.698;6.210;2023-09-18T03:20:55;17.77;;;15.75;;
60016;SDS011;45869;52.698;6.210;2023-09-18T03:23:21;18.55;;;16.08;;
60016;SDS011;45869;52.698;6.210;2023-09-18T03:25:47;18.63;;;16.55;;
60016;SDS011;45869;52.698;6.210;2023-09-18T03:28:13;18.55;;;16.45;;
60016;SDS011;45869;52.698;6.210;2023-09-18T03:30:39;18.50;;;16.25;;
60016;SDS011;45869;52.698;6.210;2023-09-18T03:33:05;19.55;;;16.15;;
60016;SDS011;45869;52.698;6.210;2023-09-18T03:35:31;18.30;;;16.27;;
60016;SDS011;45869;52.698;6.210;2023-09-18T03:37:57;17.55;;;15.55;;
60016;SDS011;45869;52.698;6.210;2023-09-18T03:40:23;17.45;;;15.65;;
60016;SDS011;45869;52.698;6.210;2023-09-18T03:42:49;17.90;;;14.95;;
60016;SDS011;45869;52.698;6.210;2023-09-18T03:45:16;20.45;;;16.33;;
60016;SDS011;45869;52.698;6.210;2023-09-18T03:47:43;19.67;;;15.82;;
60016;SDS011;45869;52.698;6.210;2023-09-18T03:50:10;17.48;;;14.02;;
60016;SDS011;45869;52.698;6.210;2023-09-18T03:52:37;20.95;;;15.48;;
60016;SDS011;45869;52.698;6.210;2023-09-18T03:55:06;17.30;;;14.55;;
60016;SDS011;45869;52.698;6.210;2023-09-18T03:57:33;16.40;;;13.85;;
60016;SDS011;45869;52.698;6.210;2023-09-18T03:59:59;16.45;;;14.32;;
60016;SDS011;45869;52.698;6.210;2023-09-18T04:02:25;17.13;;;14.75;;
60016;SDS011;45869;52.698;6.210;2023-09-18T04:04:53;16.63;;;13.90;;
60016;SDS011;45869;52.698;6.210;2023-09-18T04:07:19;19.25;;;15.15;;
60016;SDS011;45869;52.698;6.210;2023-09-18T04:09:46;15.15;;;13.48;;
60016;SDS011;45869;52.698;6.210;2023-09-18T04:12:12;16.08;;;13.90;;
60016;SDS011;45869;52.698;6.210;2023-09-18T04:14:38;16.02;;;13.35;;
60016;SDS011;45869;52.698;6.210;2023-09-18T04:17:04;15.52;;;13.82;;
60016;SDS011;45869;52.698;6.210;2023-09-18T04:19:30;14.45;;;12.68;;
60016;SDS011;45869;52.698;6.210;2023-09-18T04:21:57;15.35;;;12.98;;
60016;SDS011;45869;52.698;6.210;2023-09-18T04:24:23;15.73;;;12.93;;
60016;SDS011;45869;52.698;6.210;2023-09-18T04:26:49;15.98;;;12.80;;
60016;SDS011;45869;52.698;6.210;2023-09-18T04:29:18;16.98;;;12.25;;
60016;SDS011;45869;52.698;6.210;2023-09-18T04:31:44;14.27;;;12.05;;
60016;SDS011;45869;52.698;6.210;2023-09-18T04:34:11;16.40;;;12.02;;
60016;SDS011;45869;52.698;6.210;2023-09-18T04:36:37;14.70;;;11.75;;
60016;SDS011;45869;52.698;6.210;2023-09-18T04:39:04;14.50;;;11.90;;
60016;SDS011;45869;52.698;6.210;2023-09-18T04:41:30;12.90;;;10.85;;
60016;SDS011;45869;52.698;6.210;2023-09-18T04:43:56;13.60;;;11.35;;
60016;SDS011;45869;52.698;6.210;2023-09-18T04:46:22;13.25;;;11.02;;
60016;SDS011;45869;52.698;6.210;2023-09-18T04:48:51;15.27;;;11.90;;
60016;SDS011;45869;52.698;6.210;2023-09-18T04:51:17;14.88;;;11.68;;
60016;SDS011;45869;52.698;6.210;2023-09-18T04:53:43;12.32;;;11.02;;
60016;SDS011;45869;52.698;6.210;2023-09-18T04:56:09;14.95;;;11.68;;
60016;SDS011;45869;52.698;6.210;2023-09-18T04:58:39;14.57;;;11.23;;
60016;SDS011;45869;52.698;6.210;2023-09-18T05:01:05;12.80;;;11.32;;
60016;SDS011;45869;52.698;6.210;2023-09-18T05:03:35;12.48;;;11.18;;
60016;SDS011;45869;52.698;6.210;2023-09-18T05:06:01;14.30;;;11.52;;
60016;SDS011;45869;52.698;6.210;2023-09-18T05:08:28;14.05;;;11.38;;
60016;SDS011;45869;52.698;6.210;2023-09-18T05:10:57;14.32;;;11.60;;
60016;SDS011;45869;52.698;6.210;2023-09-18T05:13:23;13.80;;;10.70;;
60016;SDS011;45869;52.698;6.210;2023-09-18T05:15:49;14.35;;;9.98;;
60016;SDS011;45869;52.698;6.210;2023-09-18T05:18:15;13.50;;;10.70;;
60016;SDS011;45869;52.698;6.210;2023-09-18T05:20:41;12.45;;;10.02;;
60016;SDS011;45869;52.698;6.210;2023-09-18T05:23:07;13.40;;;10.90;;
60016;SDS011;45869;52.698;6.210;2023-09-18T05:25:41;14.50;;;10.07;;
60016;SDS011;45869;52.698;6.210;2023-09-18T05:28:10;11.68;;;9.55;;
60016;SDS011;45869;52.698;6.210;2023-09-18T05:30:36;16.05;;;10.45;;
60016;SDS011;45869;52.698;6.210;2023-09-18T05:33:06;13.25;;;9.13;;
60016;SDS011;45869;52.698;6.210;2023-09-18T05:35:40;11.30;;;9.60;;
60016;SDS011;45869;52.698;6.210;2023-09-18T05:38:06;11.73;;;9.05;;
60016;SDS011;45869;52.698;6.210;2023-09-18T05:40:33;10.88;;;9.48;;
60016;SDS011;45869;52.698;6.210;2023-09-18T05:42:59;11.80;;;10.32;;
60016;SDS011;45869;52.698;6.210;2023-09-18T05:45:25;13.85;;;9.57;;
60016;SDS011;45869;52.698;6.210;2023-09-18T05:47:52;11.95;;;9.23;;
60016;SDS011;45869;52.698;6.210;2023-09-18T05:50:38;12.52;;;9.77;;
60016;SDS011;45869;52.698;6.210;2023-09-18T05:53:06;14.25;;;10.52;;
60016;SDS011;45869;52.698;6.210;2023-09-18T05:55:33;13.93;;;10.63;;
60016;SDS011;45869;52.698;6.210;2023-09-18T05:58:00;14.38;;;10.35;;
60016;SDS011;45869;52.698;6.210;2023-09-18T06:00:26;15.68;;;9.98;;
60016;SDS011;45869;52.698;6.210;2023-09-18T06:02:52;12.13;;;9.48;;
60016;SDS011;45869;52.698;6.210;2023-09-18T06:05:18;14.52;;;10.27;;
60016;SDS011;45869;52.698;6.210;2023-09-18T06:07:48;14.60;;;10.20;;
60016;SDS011;45869;52.698;6.210;2023-09-18T06:10:14;14.65;;;10.68;;
60016;SDS011;45869;52.698;6.210;2023-09-18T06:12:41;16.25;;;11.48;;
60016;SDS011;45869;52.698;6.210;2023-09-18T06:15:09;17.13;;;11.30;;
60016;SDS011;45869;52.698;6.210;2023-09-18T06:17:38;17.58;;;10.05;;
60016;SDS011;45869;52.698;6.210;2023-09-18T06:20:08;13.40;;;10.60;;
60016;SDS011;45869;52.698;6.210;2023-09-18T06:22:35;14.23;;;11.00;;
60016;SDS011;45869;52.698;6.210;2023-09-18T06:25:02;15.15;;;11.30;;
60016;SDS011;45869;52.698;6.210;2023-09-18T06:36:10;16.83;;;11.48;;
60016;SDS011;45869;52.698;6.210;2023-09-18T06:38:36;14.20;;;10.98;;
60016;SDS011;45869;52.698;6.210;2023-09-18T06:41:04;13.63;;;10.32;;
60016;SDS011;45869;52.698;6.210;2023-09-18T06:43:33;17.27;;;10.65;;
60016;SDS011;45869;52.698;6.210;2023-09-18T06:46:00;16.95;;;11.80;;
60016;SDS011;45869;52.698;6.210;2023-09-18T06:48:26;16.67;;;11.85;;
60016;SDS011;45869;52.698;6.210;2023-09-18T06:50:57;17.35;;;11.60;;
60016;SDS011;45869;52.698;6.210;2023-09-18T06:53:23;15.85;;;11.77;;
60016;SDS011;45869;52.698;6.210;2023-09-18T06:55:49;16.48;;;11.10;;
60016;SDS011;45869;52.698;6.210;2023-09-18T06:58:15;14.82;;;11.25;;
60016;SDS011;45869;52.698;6.210;2023-09-18T07:00:41;17.48;;;11.18;;
60016;SDS011;45869;52.698;6.210;2023-09-18T07:03:11;15.80;;;11.65;;
60016;SDS011;45869;52.698;6.210;2023-09-18T07:05:37;16.67;;;12.95;;
60016;SDS011;45869;52.698;6.210;2023-09-18T07:08:05;17.10;;;12.45;;
60016;SDS011;45869;52.698;6.210;2023-09-18T07:10:39;15.70;;;12.65;;
60016;SDS011;45869;52.698;6.210;2023-09-18T07:13:08;16.55;;;11.52;;
60016;SDS011;45869;52.698;6.210;2023-09-18T07:15:34;16.38;;;11.98;;
60016;SDS011;45869;52.698;6.210;2023-09-18T07:18:01;13.23;;;10.57;;
60016;SDS011;45869;52.698;6.210;2023-09-18T07:20:27;14.18;;;10.55;;
60016;SDS011;45869;52.698;6.210;2023-09-18T07:22:57;12.82;;;9.13;;
60016;SDS011;45869;52.698;6.210;2023-09-18T07:25:23;12.20;;;9.48;;
60016;SDS011;45869;52.698;6.210;2023-09-18T07:27:49;13.95;;;10.07;;
60016;SDS011;45869;52.698;6.210;2023-09-18T07:30:15;11.95;;;8.85;;
60016;SDS011;45869;52.698;6.210;2023-09-18T07:32:42;12.60;;;8.35;;
60016;SDS011;45869;52.698;6.210;2023-09-18T07:35:08;11.57;;;8.85;;
60016;SDS011;45869;52.698;6.210;2023-09-18T07:37:40;10.93;;;8.32;;
60016;SDS011;45869;52.698;6.210;2023-09-18T07:40:09;11.75;;;8.77;;
60016;SDS011;45869;52.698;6.210;2023-09-18T07:42:35;10.27;;;7.50;;
60016;SDS011;45869;52.698;6.210;2023-09-18T07:45:04;11.48;;;8.43;;
60016;SDS011;45869;52.698;6.210;2023-09-18T07:47:30;10.20;;;7.80;;
60016;SDS011;45869;52.698;6.210;2023-09-18T07:49:56;9.93;;;8.65;;
60016;SDS011;45869;52.698;6.210;2023-09-18T07:52:22;11.23;;;8.32;;
60016;SDS011;45869;52.698;6.210;2023-09-18T07:57:23;13.27;;;8.65;;
60016;SDS011;45869;52.698;6.210;2023-09-18T07:59:49;15.25;;;10.25;;
60016;SDS011;45869;52.698;6.210;2023-09-18T08:02:18;13.57;;;10.18;;
60016;SDS011;45869;52.698;6.210;2023-09-18T08:04:44;13.13;;;9.98;;
60016;SDS011;45869;52.698;6.210;2023-09-18T08:07:14;14.75;;;10.38;;
60016;SDS011;45869;52.698;6.210;2023-09-18T08:09:41;15.82;;;10.73;;
60016;SDS011;45869;52.698;6.210;2023-09-18T08:12:07;13.73;;;10.25;;
60016;SDS011;45869;52.698;6.210;2023-09-18T08:14:37;11.93;;;9.10;;
60016;SDS011;45869;52.698;6.210;2023-09-18T08:17:05;14.50;;;10.20;;
60016;SDS011;45869;52.698;6.210;2023-09-18T08:19:32;12.10;;;9.55;;
60016;SDS011;45869;52.698;6.210;2023-09-18T08:21:58;10.15;;;8.68;;
60016;SDS011;45869;52.698;6.210;2023-09-18T08:24:25;19.48;;;9.85;;
60016;SDS011;45869;52.698;6.210;2023-09-18T08:26:51;12.82;;;8.93;;
60016;SDS011;45869;52.698;6.210;2023-09-18T08:29:17;12.13;;;9.00;;
60016;SDS011;45869;52.698;6.210;2023-09-18T08:31:44;12.73;;;8.40;;
60016;SDS011;45869;52.698;6.210;2023-09-18T08:34:10;11.60;;;8.25;;
60016;SDS011;45869;52.698;6.210;2023-09-18T08:36:36;9.90;;;8.00;;
60016;SDS011;45869;52.698;6.210;2023-09-18T08:39:02;9.48;;;7.70;;
60016;SDS011;45869;52.698;6.210;2023-09-18T08:41:31;11.93;;;8.70;;
60016;SDS011;45869;52.698;6.210;2023-09-18T08:44:01;12.85;;;9.07;;
60016;SDS011;45869;52.698;6.210;2023-09-18T08:46:28;12.05;;;9.18;;
60016;SDS011;45869;52.698;6.210;2023-09-18T08:48:55;11.27;;;8.90;;
60016;SDS011;45869;52.698;6.210;2023-09-18T08:51:21;12.98;;;9.13;;
60016;SDS011;45869;52.698;6.210;2023-09-18T08:53:48;13.25;;;9.65;;
60016;SDS011;45869;52.698;6.210;2023-09-18T08:56:15;10.10;;;9.00;;
60016;SDS011;45869;52.698;6.210;2023-09-18T08:58:42;13.20;;;10.00;;
60016;SDS011;45869;52.698;6.210;2023-09-18T09:01:09;13.55;;;9.77;;
60016;SDS011;45869;52.698;6.210;2023-09-18T09:03:39;13.32;;;10.65;;
60016;SDS011;45869;52.698;6.210;2023-09-18T09:06:06;10.73;;;8.88;;
60016;SDS011;45869;52.698;6.210;2023-09-18T09:08:33;12.27;;;10.05;;
60016;SDS011;45869;52.698;6.210;2023-09-18T09:10:59;11.82;;;8.88;;
60016;SDS011;45869;52.698;6.210;2023-09-18T09:13:25;13.13;;;10.00;;
60016;SDS011;45869;52.698;6.210;2023-09-18T09:15:55;12.13;;;9.23;;
60016;SDS011;45869;52.698;6.210;2023-09-18T09:18:26;12.25;;;8.98;;
60016;SDS011;45869;52.698;6.210;2023-09-18T09:20:56;13.52;;;9.45;;
60016;SDS011;45869;52.698;6.210;2023-09-18T09:23:23;12.90;;;8.88;;
60016;SDS011;45869;52.698;6.210;2023-09-18T09:25:49;10.30;;;8.45;;
60016;SDS011;45869;52.698;6.210;2023-09-18T09:28:15;10.07;;;8.55;;
60016;SDS011;45869;52.698;6.210;2023-09-18T09:30:44;10.30;;;8.60;;
60016;SDS011;45869;52.698;6.210;2023-09-18T09:33:11;9.95;;;8.05;;
60016;SDS011;45869;52.698;6.210;2023-09-18T09:35:47;11.93;;;7.97;;
60016;SDS011;45869;52.698;6.210;2023-09-18T09:38:14;9.25;;;7.63;;
60016;SDS011;45869;52.698;6.210;2023-09-18T09:40:41;10.60;;;7.70;;
60016;SDS011;45869;52.698;6.210;2023-09-18T09:43:19;10.40;;;7.32;;
60016;SDS011;45869;52.698;6.210;2023-09-18T09:45:46;9.60;;;6.85;;
60016;SDS011;45869;52.698;6.210;2023-09-18T09:48:12;9.48;;;7.30;;
60016;SDS011;45869;52.698;6.210;2023-09-18T09:50:43;8.02;;;6.65;;
60016;SDS011;45869;52.698;6.210;2023-09-18T09:53:13;7.88;;;6.50;;
60016;SDS011;45869;52.698;6.210;2023-09-18T09:55:39;9.52;;;7.00;;
60016;SDS011;45869;52.698;6.210;2023-09-18T09:58:06;7.95;;;6.30;;
60016;SDS011;45869;52.698;6.210;2023-09-18T10:00:33;7.85;;;6.15;;
60016;SDS011;45869;52.698;6.210;2023-09-18T10:03:10;7.10;;;5.70;;
60016;SDS011;45869;52.698;6.210;2023-09-18T10:05:38;9.43;;;5.57;;
60016;SDS011;45869;52.698;6.210;2023-09-18T10:10:31;7.80;;;5.90;;
60016;SDS011;45869;52.698;6.210;2023-09-18T10:13:00;7.07;;;6.00;;
60016;SDS011;45869;52.698;6.210;2023-09-18T10:15:27;8.40;;;6.15;;
60016;SDS011;45869;52.698;6.210;2023-09-18T10:17:56;6.78;;;5.82;;
60016;SDS011;45869;52.698;6.210;2023-09-18T10:20:24;6.60;;;5.57;;
60016;SDS011;45869;52.698;6.210;2023-09-18T10:22:56;6.45;;;4.97;;
60016;SDS011;45869;52.698;6.210;2023-09-18T10:25:25;7.50;;;4.97;;
60016;SDS011;45869;52.698;6.210;2023-09-18T10:27:54;5.68;;;4.95;;
60016;SDS011;45869;52.698;6.210;2023-09-18T10:30:29;5.20;;;4.60;;
60016;SDS011;45869;52.698;6.210;2023-09-18T10:32:55;6.60;;;4.50;;
60016;SDS011;45869;52.698;6.210;2023-09-18T10:35:24;6.15;;;4.68;;
60016;SDS011;45869;52.698;6.210;2023-09-18T10:37:50;5.25;;;4.28;;
60016;SDS011;45869;52.698;6.210;2023-09-18T10:40:22;7.43;;;4.20;;
60016;SDS011;45869;52.698;6.210;2023-09-18T10:42:51;6.90;;;4.53;;
60016;SDS011;45869;52.698;6.210;2023-09-18T10:45:17;6.82;;;4.10;;
60016;SDS011;45869;52.698;6.210;2023-09-18T10:47:44;4.80;;;3.95;;
60016;SDS011;45869;52.698;6.210;2023-09-18T10:50:11;5.68;;;4.05;;
60016;SDS011;45869;52.698;6.210;2023-09-18T10:52:46;6.15;;;3.88;;
60016;SDS011;45869;52.698;6.210;2023-09-18T10:55:12;4.78;;;3.70;;
60016;SDS011;45869;52.698;6.210;2023-09-18T10:57:55;6.80;;;3.97;;
60016;SDS011;45869;52.698;6.210;2023-09-18T11:00:23;5.22;;;3.63;;
60016;SDS011;45869;52.698;6.210;2023-09-18T11:02:54;5.45;;;3.53;;
60016;SDS011;45869;52.698;6.210;2023-09-18T11:05:32;4.13;;;3.45;;
60016;SDS011;45869;52.698;6.210;2023-09-18T11:11:02;8.75;;;4.03;;
60016;SDS011;45869;52.698;6.210;2023-09-18T11:13:54;7.22;;;4.30;;
60016;SDS011;45869;52.698;6.210;2023-09-18T11:19:05;6.15;;;3.60;;
60016;SDS011;45869;52.698;6.210;2023-09-18T11:21:34;5.95;;;3.67;;
60016;SDS011;45869;52.698;6.210;2023-09-18T11:24:01;5.57;;;3.95;;
60016;SDS011;45869;52.698;6.210;2023-09-18T11:26:32;6.78;;;3.78;;
60016;SDS011;45869;52.698;6.210;2023-09-18T11:29:21;6.68;;;4.25;;
60016;SDS011;45869;52.698;6.210;2023-09-18T11:31:51;5.18;;;3.90;;
60016;SDS011;45869;52.698;6.210;2023-09-18T11:34:30;5.03;;;3.70;;
60016;SDS011;45869;52.698;6.210;2023-09-18T11:37:02;4.95;;;3.20;;
60016;SDS011;45869;52.698;6.210;2023-09-18T11:42:15;5.35;;;3.08;;
60016;SDS011;45869;52.698;6.210;2023-09-18T11:44:41;5.13;;;3.55;;
60016;SDS011;45869;52.698;6.210;2023-09-18T11:47:11;6.50;;;3.60;;
60016;SDS011;45869;52.698;6.210;2023-09-18T11:49:42;5.55;;;3.50;;
60016;SDS011;45869;52.698;6.210;2023-09-18T11:52:14;4.53;;;3.28;;
60016;SDS011;45869;52.698;6.210;2023-09-18T11:54:40;6.55;;;3.88;;
60016;SDS011;45869;52.698;6.210;2023-09-18T11:57:07;5.00;;;3.65;;
60016;SDS011;45869;52.698;6.210;2023-09-18T11:59:33;6.20;;;3.65;;
60016;SDS011;45869;52.698;6.210;2023-09-18T12:02:01;5.40;;;3.83;;
60016;SDS011;45869;52.698;6.210;2023-09-18T12:04:31;6.63;;;3.60;;
60016;SDS011;45869;52.698;6.210;2023-09-18T12:06:58;8.35;;;3.75;;
60016;SDS011;45869;52.698;6.210;2023-09-18T12:09:29;6.10;;;3.17;;
60016;SDS011;45869;52.698;6.210;2023-09-18T12:11:57;4.72;;;3.58;;
60016;SDS011;45869;52.698;6.210;2023-09-18T12:14:23;6.63;;;3.70;;
60016;SDS011;45869;52.698;6.210;2023-09-18T12:16:49;5.28;;;3.63;;
60016;SDS011;45869;52.698;6.210;2023-09-18T12:19:16;7.20;;;3.47;;
60016;SDS011;45869;52.698;6.210;2023-09-18T12:21:45;4.35;;;3.15;;
60016;SDS011;45869;52.698;6.210;2023-09-18T12:24:24;5.78;;;3.30;;
60016;SDS011;45869;52.698;6.210;2023-09-18T12:26:51;5.13;;;2.95;;
60016;SDS011;45869;52.698;6.210;2023-09-18T12:29:17;6.68;;;3.10;;
60016;SDS011;45869;52.698;6.210;2023-09-18T12:31:43;3.30;;;2.72;;
60016;SDS011;45869;52.698;6.210;2023-09-18T12:34:19;6.57;;;3.20;;
60016;SDS011;45869;52.698;6.210;2023-09-18T12:36:49;6.05;;;3.20;;
60016;SDS011;45869;52.698;6.210;2023-09-18T12:39:16;6.00;;;3.60;;
60016;SDS011;45869;52.698;6.210;2023-09-18T12:41:44;5.43;;;3.30;;
60016;SDS011;45869;52.698;6.210;2023-09-18T12:44:10;4.90;;;3.22;;
60016;SDS011;45869;52.698;6.210;2023-09-18T12:46:37;4.85;;;3.30;;
60016;SDS011;45869;52.698;6.210;2023-09-18T12:49:18;3.75;;;2.85;;
60016;SDS011;45869;52.698;6.210;2023-09-18T12:51:59;3.72;;;2.72;;
60016;SDS011;45869;52.698;6.210;2023-09-18T12:54:44;4.88;;;3.17;;
60016;SDS011;45869;52.698;6.210;2023-09-18T12:57:19;4.47;;;2.90;;
60016;SDS011;45869;52.698;6.210;2023-09-18T12:59:46;5.68;;;3.10;;
60016;SDS011;45869;52.698;6.210;2023-09-18T13:02:14;7.10;;;3.20;;
60016;SDS011;45869;52.698;6.210;2023-09-18T13:04:40;4.20;;;2.80;;
60016;SDS011;45869;52.698;6.210;2023-09-18T13:07:07;6.40;;;3.33;;
60016;SDS011;45869;52.698;6.210;2023-09-18T13:09:33;5.30;;;3.15;;
60016;SDS011;45869;52.698;6.210;2023-09-18T13:12:00;5.47;;;2.90;;
60016;SDS011;45869;52.698;6.210;2023-09-18T13:14:30;8.27;;;2.97;;
60016;SDS011;45869;52.698;6.210;2023-09-18T13:17:02;6.28;;;2.90;;
60016;SDS011;45869;52.698;6.210;2023-09-18T13:19:29;4.05;;;2.90;;
60016;SDS011;45869;52.698;6.210;2023-09-18T13:21:55;7.18;;;3.08;;
60016;SDS011;45869;52.698;6.210;2023-09-18T13:24:25;5.43;;;2.95;;
60016;SDS011;45869;52.698;6.210;2023-09-18T13:26:52;4.32;;;2.80;;
60016;SDS011;45869;52.698;6.210;2023-09-18T13:29:18;5.85;;;3.50;;
60016;SDS011;45869;52.698;6.210;2023-09-18T13:31:50;7.22;;;3.58;;
60016;SDS011;45869;52.698;6.210;2023-09-18T13:34:16;5.22;;;3.30;;
60016;SDS011;45869;52.698;6.210;2023-09-18T13:39:22;6.65;;;3.50;;
60016;SDS011;45869;52.698;6.210;2023-09-18T13:41:48;7.88;;;4.13;;
60016;SDS011;45869;52.698;6.210;2023-09-18T13:44:14;4.65;;;3.05;;
60016;SDS011;45869;52.698;6.210;2023-09-18T13:46:40;5.85;;;3.30;;
60016;SDS011;45869;52.698;6.210;2023-09-18T13:49:06;6.93;;;3.28;;
60016;SDS011;45869;52.698;6.210;2023-09-18T13:51:38;4.07;;;2.95;;
60016;SDS011;45869;52.698;6.210;2023-09-18T13:54:15;6.13;;;3.10;;
60016;SDS011;45869;52.698;6.210;2023-09-18T13:56:53;6.25;;;3.22;;
60016;SDS011;45869;52.698;6.210;2023-09-18T13:59:35;5.05;;;2.80;;
60016;SDS011;45869;52.698;6.210;2023-09-18T14:02:05;4.50;;;2.72;;
60016;SDS011;45869;52.698;6.210;2023-09-18T14:04:31;5.72;;;2.80;;
60016;SDS011;45869;52.698;6.210;2023-09-18T14:06:57;5.97;;;2.88;;
60016;SDS011;45869;52.698;6.210;2023-09-18T14:09:30;3.45;;;2.47;;
60016;SDS011;45869;52.698;6.210;2023-09-18T14:11:59;3.85;;;2.42;;
60016;SDS011;45869;52.698;6.210;2023-09-18T14:14:25;4.15;;;2.40;;
60016;SDS011;45869;52.698;6.210;2023-09-18T14:16:52;3.65;;;2.40;;
60016;SDS011;45869;52.698;6.210;2023-09-18T14:19:22;4.30;;;2.58;;
60016;SDS011;45869;52.698;6.210;2023-09-18T14:21:48;5.90;;;2.88;;
60016;SDS011;45869;52.698;6.210;2023-09-18T14:24:14;4.97;;;2.60;;
60016;SDS011;45869;52.698;6.210;2023-09-18T14:26:43;5.30;;;2.70;;
60016;SDS011;45869;52.698;6.210;2023-09-18T14:29:10;5.32;;;2.60;;
60016;SDS011;45869;52.698;6.210;2023-09-18T14:31:36;4.57;;;2.72;;
60016;SDS011;45869;52.698;6.210;2023-09-18T14:34:03;3.22;;;2.25;;
60016;SDS011;45869;52.698;6.210;2023-09-18T14:36:33;5.75;;;2.72;;
60016;SDS011;45869;52.698;6.210;2023-09-18T14:39:00;2.80;;;2.15;;
60016;SDS011;45869;52.698;6.210;2023-09-18T14:41:29;3.58;;;2.60;;
60016;SDS011;45869;52.698;6.210;2023-09-18T14:43:58;4.15;;;2.42;;
60016;SDS011;45869;52.698;6.210;2023-09-18T14:46:24;4.72;;;2.30;;
60016;SDS011;45869;52.698;6.210;2023-09-18T14:48:50;3.75;;;2.20;;
60016;SDS011;45869;52.698;6.210;2023-09-18T14:51:16;5.28;;;2.40;;
60016;SDS011;45869;52.698;6.210;2023-09-18T14:53:43;3.92;;;1.80;;
60016;SDS011;45869;52.698;6.210;2023-09-18T14:56:09;5.20;;;2.03;;
60016;SDS011;45869;52.698;6.210;2023-09-18T14:58:35;3.75;;;1.83;;
60016;SDS011;45869;52.698;6.210;2023-09-18T15:01:04;2.97;;;1.65;;
60016;SDS011;45869;52.698;6.210;2023-09-18T15:03:31;3.35;;;2.00;;